Pays
Station

 

Conditions  météo  pour  Alton/St. Louis Regional  -  Etats-Unis    Etats-Unis

  
12 °C
    
 
 

METAR pour Alton/St. Louis Regional :

KALN 230415Z AUTO 00000KT 10SM CLR 12/12 A3015 RMK AO2 T01180117

 

Voici le bulletin pour Alton/St. Louis Regional - Etats-Unis.
 
Le bulletin a été fait il y a 21 minutes, à 04:15 UTC .
Le vent était calme.
 
La température était de 12 °C, avec un point de rosée à 12 °C.
La pression atmosphérique était de 1021 hPa.
L'humidité relative était de 100.0%.
 
Le ciel était clair.
 
La visibilité globale était de 16.1 kilomètres.
 

 
 
 

Pays :   A   B   C   D   E   F   G   H   I   J   K   L   M   N   O   P   Q   R   S   T   U   V   W   Y   Z

 

Partenaires :  Info Météo avec Met'info
Météo Marine avec MeteoMarine.net
Infos Site  |  Infos Légales  |  Crédits  |  Confidentialité
Contactez-nous  |  Ajouter aux favoris
© 2013-2018 METAR - Tous droits réservés